Pagina principale
METAR-TAF:

METAR-TAF

Aeroporti :

Pembrey, Galles

latitudine: 51-43N, longitudine: 004-22W, altezza: 3 m

Osservazione

Il bollettino è stato emesso 1 ora e 10 minuti fa, alle 11:50 UTC
Vento 28 kt da sud-ovest con raffiche fino a 38 kt
Temperature 11°C
Umidità 94%
Pressione 1003 hPa
Visibilità: 3500 m

METAR: EGOP 061150Z AUTO 23028G38KT 3500 // FEW008/// BKN010/// 11/10 Q1003

Ora: 13:00 (13:00 UTC)


TAF: mancante

Osservazioni e previsioni meteorologiche di più di 4000 aeroporti (messaggi METAR e TAF).

Le stazioni disponibili sono rappresentate dai dischi gialli e rossi sulla carta.

Puntare il mouse per vedere il nome della stazione.

Clicca sopra per visualizzare le osservazioni e previsioni meteorologiche.

Per cambiare la mappa : fare clic sui pulsanti verdi con una croce nera per ingrandire, il pulsante verde con un trattino per diminuire, o sulla freccia verde per le mappe adiacenti.


METAR-TAF: